createdAt,value
2023-04-17T00:00:53.534Z,65.86
2023-04-17T00:01:53.519Z,66.06
2023-04-17T00:02:53.616Z,66.16
2023-04-17T00:03:53.720Z,66.16
2023-04-17T00:04:53.635Z,65.86
2023-04-17T00:05:52.839Z,65.86
2023-04-17T00:06:53.453Z,66.16
2023-04-17T00:07:54.191Z,65.92
2023-04-17T00:08:53.419Z,66.13
2023-04-17T00:09:53.403Z,66.44
2023-04-17T00:11:04.098Z,66.16
2023-04-17T00:11:54.375Z,64.93
2023-04-17T00:12:53.127Z,64.93
2023-04-17T00:13:53.344Z,65.34
2023-04-17T00:14:53.572Z,65.03
2023-04-17T00:15:53.637Z,65.86
2023-04-17T00:16:53.387Z,66.78
2023-04-17T00:17:53.373Z,67.19
2023-04-17T00:18:53.271Z,67.71
2023-04-17T00:19:53.260Z,67.50
2023-04-17T00:20:53.276Z,68.53
2023-04-17T00:21:53.241Z,69.15
2023-04-17T00:22:53.461Z,67.81
2023-04-17T00:23:53.246Z,67.81
2023-04-17T00:24:53.201Z,67.81
2023-04-17T00:25:53.193Z,68.02
2023-04-17T00:26:53.201Z,67.30
2023-04-17T00:27:53.128Z,67.19
2023-04-17T00:28:53.141Z,67.60
2023-04-17T00:29:53.133Z,68.02
2023-04-17T00:30:53.353Z,67.60
2023-04-17T00:31:53.175Z,67.71
2023-04-17T00:32:53.369Z,67.30
2023-04-17T00:33:53.083Z,65.03
2023-04-17T00:34:55.568Z,64.11
2023-04-17T00:35:53.109Z,64.11
2023-04-17T00:36:53.034Z,64.00
2023-04-17T00:37:53.004Z,62.97
2023-04-17T00:38:53.245Z,63.79
2023-04-17T00:39:52.989Z,66.27
2023-04-17T00:40:52.977Z,67.19
2023-04-17T00:41:53.021Z,67.91
2023-04-17T00:42:52.954Z,68.22
2023-04-17T00:43:53.652Z,68.53
2023-04-17T00:44:52.982Z,68.80
2023-04-17T00:45:52.983Z,69.32
2023-04-17T00:46:53.113Z,69.32
2023-04-17T00:47:52.950Z,68.91
2023-04-17T00:48:52.913Z,66.96
2023-04-17T00:49:52.876Z,67.47
2023-04-17T00:50:52.857Z,68.29
2023-04-17T00:51:52.849Z,67.57
2023-04-17T00:52:52.136Z,67.98
2023-04-17T00:53:52.329Z,68.08
2023-04-17T00:54:52.792Z,68.19
2023-04-17T00:55:52.341Z,66.64
2023-04-17T00:56:52.780Z,67.36
2023-04-17T00:57:52.787Z,67.54
2023-04-17T00:58:52.745Z,67.65
2023-04-17T00:59:52.730Z,66.82
2023-04-17T01:00:53.468Z,67.54
2023-04-17T01:01:52.077Z,68.26
2023-04-17T01:02:52.813Z,68.05
2023-04-17T01:03:52.786Z,69.39
2023-04-17T01:04:52.676Z,69.09
2023-04-17T01:05:52.646Z,69.39
2023-04-17T01:06:52.626Z,70.11
2023-04-17T01:07:52.632Z,71.45
2023-04-17T01:08:52.591Z,71.14
2023-04-17T01:09:51.872Z,71.75
2023-04-17T01:10:52.574Z,71.55
2023-04-17T01:11:53.288Z,71.55
2023-04-17T01:12:52.559Z,71.86
2023-04-17T01:13:52.514Z,71.66
2023-04-17T01:14:52.583Z,71.86
2023-04-17T01:15:52.502Z,73.09
2023-04-17T01:16:52.573Z,72.17
2023-04-17T01:17:51.973Z,72.13
2023-04-17T01:18:52.446Z,72.17
2023-04-17T01:19:52.470Z,72.38
2023-04-17T01:20:52.468Z,71.96
2023-04-17T01:21:52.426Z,72.03
2023-04-17T01:22:52.417Z,71.31
2023-04-17T01:23:52.366Z,71.11
2023-04-17T01:24:52.384Z,71.41
2023-04-17T01:25:52.445Z,71.93
2023-04-17T01:26:52.362Z,71.21
2023-04-17T01:27:52.420Z,71.11
2023-04-17T01:28:52.316Z,70.39
2023-04-17T01:29:52.312Z,70.59
2023-04-17T01:30:52.366Z,69.87
2023-04-17T01:31:52.290Z,69.46
2023-04-17T01:32:52.350Z,69.98
2023-04-17T01:33:51.555Z,68.85
2023-04-17T01:34:52.477Z,68.95
2023-04-17T01:35:52.257Z,69.77
2023-04-17T01:36:52.257Z,68.64
2023-04-17T01:37:52.286Z,69.87
2023-04-17T01:38:52.182Z,70.49
2023-04-17T01:39:52.196Z,70.49
2023-04-17T01:40:51.572Z,70.56
2023-04-17T01:41:51.413Z,71.28
2023-04-17T01:42:52.142Z,71.59
2023-04-17T01:43:52.140Z,71.59
2023-04-17T01:44:52.125Z,71.79
2023-04-17T01:45:52.133Z,72.20
2023-04-17T01:46:52.142Z,72.10
2023-04-17T01:47:52.159Z,71.48
2023-04-17T01:48:52.732Z,71.89
2023-04-17T01:49:52.707Z,72.00
2023-04-17T01:50:52.251Z,72.31
2023-04-17T01:51:52.040Z,72.72
2023-04-17T01:52:52.004Z,72.82
2023-04-17T01:53:52.010Z,72.72
2023-04-17T01:54:51.994Z,72.82
2023-04-17T01:55:51.971Z,72.31
2023-04-17T01:56:52.684Z,72.10
2023-04-17T01:57:51.493Z,71.59
2023-04-17T01:58:51.907Z,71.17
2023-04-17T01:59:51.916Z,70.87
2023-04-17T02:00:51.940Z,70.76
2023-04-17T02:01:51.935Z,70.97
2023-04-17T02:02:52.000Z,70.87
2023-04-17T02:03:51.911Z,70.36
2023-04-17T02:04:51.859Z,70.04
2023-04-17T02:05:51.560Z,70.04
2023-04-17T02:06:51.893Z,69.12
2023-04-17T02:07:51.577Z,68.91
2023-04-17T02:08:51.760Z,69.23
2023-04-17T02:09:51.786Z,69.84
2023-04-17T02:10:51.775Z,70.15
2023-04-17T02:11:51.828Z,69.43
2023-04-17T02:12:51.739Z,69.94
2023-04-17T02:13:51.617Z,70.15
2023-04-17T02:14:51.706Z,70.25
2023-04-17T02:15:51.731Z,70.25
2023-04-17T02:16:51.701Z,70.56
2023-04-17T02:17:51.705Z,70.66
2023-04-17T02:18:52.327Z,70.76
2023-04-17T02:19:51.677Z,70.04
2023-04-17T02:20:51.650Z,69.84
2023-04-17T02:21:50.875Z,70.25
2023-04-17T02:22:51.595Z,70.04
2023-04-17T02:23:52.330Z,70.25
2023-04-17T02:24:51.580Z,70.15
2023-04-17T02:25:52.272Z,69.94
2023-04-17T02:26:51.551Z,69.74
2023-04-17T02:27:51.540Z,70.15
2023-04-17T02:28:51.159Z,70.04
2023-04-17T02:29:51.225Z,69.64
2023-04-17T02:30:51.524Z,69.64
2023-04-17T02:31:52.209Z,69.64
2023-04-17T02:32:51.509Z,69.02
2023-04-17T02:33:52.175Z,70.66
2023-04-17T02:34:51.452Z,69.84
2023-04-17T02:35:52.153Z,69.43
2023-04-17T02:36:51.401Z,69.12
2023-04-17T02:37:50.697Z,70.12
2023-04-17T02:38:51.357Z,70.73
2023-04-17T02:39:51.355Z,70.63
2023-04-17T02:40:51.354Z,71.04
2023-04-17T02:41:51.386Z,70.12
2023-04-17T02:42:51.319Z,70.42
2023-04-17T02:43:51.312Z,70.01
2023-04-17T02:44:51.314Z,69.91
2023-04-17T02:45:51.281Z,70.84
2023-04-17T02:46:51.356Z,70.22
2023-04-17T02:47:51.550Z,69.29
2023-04-17T02:48:51.240Z,68.68
2023-04-17T02:49:51.251Z,69.29
2023-04-17T02:50:51.229Z,69.60
2023-04-17T02:51:51.451Z,69.40
2023-04-17T02:52:51.202Z,70.22
2023-04-17T02:53:51.153Z,69.81
2023-04-17T02:54:51.276Z,69.29
2023-04-17T02:55:51.213Z,70.42
2023-04-17T02:56:51.184Z,70.60
2023-04-17T02:57:51.152Z,69.67
2023-04-17T02:58:51.109Z,68.85
2023-04-17T02:59:51.112Z,67.62
2023-04-17T03:00:51.120Z,68.24
2023-04-17T03:01:51.176Z,68.85
2023-04-17T03:02:51.152Z,69.06
2023-04-17T03:03:51.193Z,69.16
2023-04-17T03:04:51.071Z,69.67
2023-04-17T03:05:51.015Z,69.88
2023-04-17T03:06:51.012Z,69.98
2023-04-17T03:07:51.039Z,69.33
2023-04-17T03:08:50.967Z,69.74
2023-04-17T03:09:50.981Z,69.95
2023-04-17T03:10:50.961Z,70.05
2023-04-17T03:11:50.949Z,72.92
2023-04-17T03:12:50.924Z,71.59
2023-04-17T03:13:50.954Z,71.08
2023-04-17T03:14:50.882Z,72.10
2023-04-17T03:15:50.434Z,72.72
2023-04-17T03:16:50.950Z,73.74
2023-04-17T03:17:50.536Z,72.92
2023-04-17T03:18:50.844Z,72.72
2023-04-17T03:19:50.827Z,72.92
2023-04-17T03:20:50.815Z,72.41
2023-04-17T03:21:50.808Z,72.41
2023-04-17T03:22:50.789Z,73.44
2023-04-17T03:23:50.774Z,73.02
2023-04-17T03:24:50.767Z,74.05
2023-04-17T03:25:50.047Z,75.49
2023-04-17T03:26:50.727Z,75.49
2023-04-17T03:27:50.716Z,74.46
2023-04-17T03:28:50.696Z,75.79
2023-04-17T03:29:50.693Z,76.31
2023-04-17T03:30:51.392Z,77.03
2023-04-17T03:31:50.718Z,75.69
2023-04-17T03:32:51.384Z,74.77
2023-04-17T03:33:50.271Z,74.63
2023-04-17T03:34:50.602Z,75.96
2023-04-17T03:35:50.616Z,75.66
2023-04-17T03:36:50.617Z,76.07
2023-04-17T03:37:50.616Z,75.56
2023-04-17T03:38:50.568Z,75.45
2023-04-17T03:39:50.528Z,75.86
2023-04-17T03:40:50.539Z,76.68
2023-04-17T03:41:51.270Z,76.07
2023-04-17T03:42:50.543Z,76.58
2023-04-17T03:43:50.515Z,77.91
2023-04-17T03:44:50.529Z,78.32
2023-04-17T03:45:51.226Z,77.71
2023-04-17T03:46:50.457Z,78.42
2023-04-17T03:47:51.186Z,79.66
2023-04-17T03:48:50.407Z,79.35
2023-04-17T03:49:51.129Z,79.96
2023-04-17T03:50:50.405Z,80.58
2023-04-17T03:51:50.419Z,81.09
2023-04-17T03:52:51.101Z,80.99
2023-04-17T03:53:50.345Z,81.36
2023-04-17T03:54:50.372Z,81.26
2023-04-17T03:55:50.363Z,81.98
2023-04-17T03:56:50.320Z,82.08
2023-04-17T03:57:50.511Z,82.08
2023-04-17T03:58:50.314Z,82.18
2023-04-17T03:59:50.282Z,82.39
2023-04-17T04:00:50.297Z,83.10
2023-04-17T04:01:50.276Z,81.77
2023-04-17T04:02:50.413Z,82.49
2023-04-17T04:03:50.369Z,82.90
2023-04-17T04:04:50.454Z,83.51
2023-04-17T04:05:50.248Z,82.69
2023-04-17T04:06:50.191Z,82.49
2023-04-17T04:07:50.199Z,82.69
2023-04-17T04:08:50.162Z,82.79
2023-04-17T04:09:50.135Z,82.28
2023-04-17T04:10:50.134Z,82.79
2023-04-17T04:11:50.115Z,83.31
2023-04-17T04:12:50.120Z,82.49
2023-04-17T04:13:50.097Z,82.28
2023-04-17T04:14:50.046Z,82.49
2023-04-17T04:15:50.203Z,82.79
2023-04-17T04:16:50.073Z,82.49
2023-04-17T04:17:50.149Z,82.39
2023-04-17T04:18:50.036Z,82.08
2023-04-17T04:19:49.997Z,81.98
2023-04-17T04:20:50.714Z,82.39
2023-04-17T04:21:49.969Z,83.10
2023-04-17T04:22:49.956Z,81.98
2023-04-17T04:23:49.972Z,81.15
2023-04-17T04:24:49.930Z,81.36
2023-04-17T04:25:49.721Z,80.64
2023-04-17T04:26:49.915Z,80.44
2023-04-17T04:27:49.675Z,79.72
2023-04-17T04:28:49.876Z,79.62
2023-04-17T04:29:49.689Z,79.41
2023-04-17T04:30:49.853Z,79.93
2023-04-17T04:31:50.553Z,78.70
2023-04-17T04:32:49.819Z,77.26
2023-04-17T04:33:49.813Z,77.57
2023-04-17T04:34:49.773Z,77.67
2023-04-17T04:35:49.668Z,77.36
2023-04-17T04:36:49.680Z,75.52
2023-04-17T04:37:49.770Z,74.60
2023-04-17T04:38:49.748Z,74.39
2023-04-17T04:39:49.715Z,73.47
2023-04-17T04:40:49.736Z,73.98
2023-04-17T04:41:49.671Z,74.32
2023-04-17T04:42:49.772Z,73.81
2023-04-17T04:43:49.681Z,74.49
2023-04-17T04:44:49.669Z,73.27
2023-04-17T04:45:50.375Z,71.42
2023-04-17T04:46:50.389Z,70.81
2023-04-17T04:47:50.409Z,71.32
2023-04-17T04:48:50.340Z,71.62
2023-04-17T04:49:50.309Z,67.52
2023-04-17T04:50:49.652Z,70.43
2023-04-17T04:51:50.270Z,66.71
2023-04-17T04:52:49.568Z,68.07
2023-04-17T04:53:50.258Z,68.89
2023-04-17T04:54:50.269Z,70.64
2023-04-17T04:55:50.303Z,70.12
2023-04-17T04:56:49.495Z,69.40
2023-04-17T04:57:50.218Z,66.43
2023-04-17T04:58:50.230Z,65.92
2023-04-17T04:59:50.193Z,63.87
2023-04-17T05:00:49.518Z,63.15
2023-04-17T05:01:49.523Z,62.12
2023-04-17T05:02:49.512Z,59.05
2023-04-17T05:03:49.592Z,60.69
2023-04-17T05:04:49.424Z,58.84
2023-04-17T05:05:49.379Z,60.38
2023-04-17T05:06:49.450Z,60.79
2023-04-17T05:07:49.360Z,58.44
2023-04-17T05:08:48.608Z,58.23
2023-04-17T05:09:49.603Z,58.84
2023-04-17T05:10:49.978Z,57.10
2023-04-17T05:11:49.301Z,57.20
2023-04-17T05:12:49.326Z,57.10
2023-04-17T05:13:49.278Z,55.87
2023-04-17T05:14:49.249Z,54.13
2023-04-17T05:15:49.308Z,53.31
2023-04-17T05:16:50.045Z,52.80
2023-04-17T05:17:49.238Z,53.72
2023-04-17T05:18:49.223Z,52.18
2023-04-17T05:19:49.191Z,53.51
2023-04-17T05:20:49.179Z,53.00
2023-04-17T05:21:49.162Z,53.00
2023-04-17T05:22:49.151Z,53.20
2023-04-17T05:23:49.159Z,51.46
2023-04-17T05:24:49.839Z,50.67
2023-04-17T05:25:49.120Z,50.85
2023-04-17T05:26:49.132Z,51.15
2023-04-17T05:27:49.837Z,51.98
2023-04-17T05:28:49.096Z,51.56
2023-04-17T05:29:49.038Z,50.23
2023-04-17T05:30:49.059Z,50.54
2023-04-17T05:31:49.107Z,49.72
2023-04-17T05:32:49.713Z,49.62
2023-04-17T05:33:49.024Z,49.31
2023-04-17T05:34:48.554Z,49.93
2023-04-17T05:35:49.017Z,49.93
2023-04-17T05:36:48.979Z,50.74
2023-04-17T05:37:48.574Z,51.87
2023-04-17T05:38:48.943Z,51.26
2023-04-17T05:39:48.566Z,51.05
2023-04-17T05:40:48.565Z,50.95
2023-04-17T05:41:48.915Z,50.54
2023-04-17T05:42:48.886Z,51.46
2023-04-17T05:43:48.870Z,51.56
2023-04-17T05:44:48.821Z,52.80
2023-04-17T05:45:48.907Z,51.98
2023-04-17T05:46:48.864Z,52.69
2023-04-17T05:47:48.153Z,51.77
2023-04-17T05:48:48.180Z,51.15
2023-04-17T05:49:48.774Z,51.77
2023-04-17T05:50:48.770Z,52.18
2023-04-17T05:51:48.792Z,51.56
2023-04-17T05:52:48.798Z,50.52
2023-04-17T05:53:48.308Z,50.62
2023-04-17T05:54:48.759Z,49.18
2023-04-17T05:55:48.361Z,50.01
2023-04-17T05:56:48.384Z,49.80
2023-04-17T05:57:48.718Z,50.21
2023-04-17T05:58:48.460Z,49.59
2023-04-17T05:59:48.651Z,50.42
2023-04-17T06:00:48.612Z,53.59
2023-04-17T06:01:48.638Z,50.62
2023-04-17T06:02:48.787Z,49.69
2023-04-17T06:03:48.881Z,50.31
2023-04-17T06:04:49.531Z,50.52
2023-04-17T06:05:49.410Z,50.72
2023-04-17T06:06:49.278Z,51.64
2023-04-17T06:07:49.287Z,51.64
2023-04-17T06:08:49.256Z,52.15
2023-04-17T06:09:49.241Z,53.49
2023-04-17T06:10:48.522Z,54.51
2023-04-17T06:11:48.521Z,55.33
2023-04-17T06:12:48.491Z,53.49
2023-04-17T06:13:48.695Z,52.26
2023-04-17T06:14:48.466Z,51.34
2023-04-17T06:15:48.445Z,52.05
2023-04-17T06:16:48.479Z,53.46
2023-04-17T06:17:48.440Z,53.67
2023-04-17T06:18:48.411Z,54.90
2023-04-17T06:19:48.412Z,54.18
2023-04-17T06:20:47.765Z,54.90
2023-04-17T06:21:48.586Z,56.74
2023-04-17T06:22:48.387Z,56.95
2023-04-17T06:23:48.340Z,56.54
2023-04-17T06:24:48.351Z,55.92
2023-04-17T06:25:48.279Z,55.92
2023-04-17T06:26:48.289Z,62.78
2023-04-17T06:27:48.278Z,60.53
2023-04-17T06:28:47.782Z,58.89
2023-04-17T06:29:48.485Z,58.58
2023-04-17T06:30:48.241Z,65.45
2023-04-17T06:31:48.271Z,62.61
2023-04-17T06:32:48.225Z,60.74
2023-04-17T06:33:48.204Z,61.66
2023-04-17T06:34:59.223Z,62.07
2023-04-17T06:35:49.159Z,64.39
2023-04-17T06:36:48.195Z,62.04
2023-04-17T06:37:48.355Z,66.44
2023-04-17T06:38:48.139Z,64.87
2023-04-17T06:39:48.334Z,66.31
2023-04-17T06:40:48.095Z,65.87
2023-04-17T06:41:48.087Z,68.01
2023-04-17T06:42:48.076Z,68.12
2023-04-17T06:43:48.063Z,70.23
2023-04-17T06:44:47.757Z,72.17
2023-04-17T06:45:48.762Z,72.07
2023-04-17T06:46:47.837Z,73.36
2023-04-17T06:47:48.066Z,72.14
2023-04-17T06:48:47.847Z,72.24
2023-04-17T06:49:47.993Z,74.49
2023-04-17T06:50:47.945Z,76.70
2023-04-17T06:51:47.788Z,80.38
2023-04-17T06:52:47.795Z,79.87
2023-04-17T06:53:47.940Z,81.71
2023-04-17T06:54:47.909Z,81.91
2023-04-17T06:55:47.886Z,83.34
2023-04-17T06:56:47.895Z,81.44
2023-04-17T06:57:47.871Z,84.30
2023-04-17T06:58:47.882Z,83.75
2023-04-17T06:59:47.828Z,84.12
2023-04-17T07:00:47.801Z,85.75
2023-04-17T07:01:47.828Z,88.00
2023-04-17T07:02:47.932Z,88.17
2023-04-17T07:03:48.676Z,87.45
2023-04-17T07:04:48.515Z,90.61
2023-04-17T07:05:47.771Z,86.43
2023-04-17T07:06:48.457Z,86.83
2023-04-17T07:07:48.449Z,87.04
2023-04-17T07:08:47.760Z,89.79
2023-04-17T07:09:48.420Z,89.14
2023-04-17T07:10:48.416Z,91.83
2023-04-17T07:11:48.402Z,88.26
2023-04-17T07:12:48.370Z,87.04
2023-04-17T07:13:48.359Z,86.53
2023-04-17T07:14:48.369Z,86.73
2023-04-17T07:15:48.407Z,86.39
2023-04-17T07:16:47.731Z,86.02
2023-04-17T07:17:48.346Z,87.76
2023-04-17T07:18:48.306Z,86.53
2023-04-17T07:19:48.297Z,86.26
2023-04-17T07:20:47.534Z,86.26
2023-04-17T07:21:47.534Z,86.57
2023-04-17T07:22:47.570Z,86.41
2023-04-17T07:23:47.549Z,86.71
2023-04-17T07:24:47.507Z,84.06
2023-04-17T07:25:47.452Z,85.49
2023-04-17T07:26:47.492Z,82.01
2023-04-17T07:27:47.473Z,85.59
2023-04-17T07:28:47.455Z,84.98
2023-04-17T07:29:47.660Z,84.22
2023-04-17T07:30:47.396Z,86.16
2023-04-17T07:31:47.434Z,83.51
2023-04-17T07:32:48.117Z,84.80
2023-04-17T07:33:47.372Z,86.59
2023-04-17T07:34:48.025Z,89.25
2023-04-17T07:35:47.325Z,88.63
2023-04-17T07:36:47.319Z,86.80
2023-04-17T07:37:47.316Z,92.50
2023-04-17T07:38:47.343Z,90.63
2023-04-17T07:39:47.290Z,93.73
2023-04-17T07:40:47.247Z,92.36
2023-04-17T07:41:47.266Z,89.51
2023-04-17T07:42:47.898Z,96.14
2023-04-17T07:43:47.253Z,95.48
2023-04-17T07:44:47.882Z,97.06
2023-04-17T07:45:47.185Z,94.87
2023-04-17T07:46:47.939Z,96.60
2023-04-17T07:47:47.187Z,95.78
2023-04-17T07:48:47.164Z,94.66
2023-04-17T07:49:47.169Z,94.56
2023-04-17T07:50:47.817Z,95.07
2023-04-17T07:51:47.126Z,96.09
2023-04-17T07:52:47.133Z,93.50
2023-04-17T07:53:47.092Z,92.23
2023-04-17T07:54:47.088Z,96.92
2023-04-17T07:55:47.061Z,97.06
2023-04-17T07:56:46.660Z,97.78
2023-04-17T07:57:47.040Z,96.86
2023-04-17T07:58:47.037Z,95.94
2023-04-17T07:59:47.006Z,96.09
2023-04-17T08:00:46.972Z,95.89
2023-04-17T08:01:47.012Z,96.54
2023-04-17T08:02:46.795Z,95.17
2023-04-17T08:03:47.149Z,99.77
2023-04-17T08:04:46.898Z,99.99
2023-04-17T08:05:46.896Z,99.99
2023-04-17T08:06:46.921Z,99.99
2023-04-17T08:07:46.901Z,97.94
2023-04-17T08:08:47.630Z,87.36
2023-04-17T08:09:47.550Z,74.22
2023-04-17T08:10:46.878Z,74.46
2023-04-17T08:11:56.381Z,81.57
2023-04-17T08:12:47.838Z,83.68
2023-04-17T08:13:46.825Z,93.27
2023-04-17T08:14:46.814Z,97.42
2023-04-17T08:15:46.783Z,95.56
2023-04-17T08:16:46.792Z,93.84
2023-04-17T08:17:46.847Z,94.09
2023-04-17T08:18:46.747Z,93.70
2023-04-17T08:19:46.744Z,76.88
2023-04-17T08:20:47.405Z,69.12
2023-04-17T08:21:46.705Z,66.43
2023-04-17T08:22:46.694Z,60.81
2023-04-17T08:23:46.689Z,59.80
2023-04-17T08:24:46.668Z,59.94
2023-04-17T08:25:47.386Z,59.65
2023-04-17T08:26:47.358Z,59.82
2023-04-17T08:27:46.632Z,59.41
2023-04-17T08:28:46.621Z,64.18
2023-04-17T08:29:46.620Z,67.77
2023-04-17T08:30:46.576Z,72.31
2023-04-17T08:31:46.567Z,77.29
2023-04-17T08:32:46.631Z,71.47
2023-04-17T08:33:46.539Z,66.80
2023-04-17T08:34:46.523Z,65.89
2023-04-17T08:35:46.620Z,66.76
2023-04-17T08:36:46.525Z,63.54
2023-04-17T08:37:46.495Z,61.53
2023-04-17T08:38:46.701Z,65.08
2023-04-17T08:39:46.687Z,69.45
2023-04-17T08:40:46.509Z,73.79
2023-04-17T08:41:46.649Z,78.35
2023-04-17T08:42:46.440Z,87.14
2023-04-17T08:43:46.398Z,90.77
2023-04-17T08:44:46.433Z,97.11
2023-04-17T08:45:46.443Z,93.86
2023-04-17T08:46:47.050Z,97.96
2023-04-17T08:47:46.407Z,98.77
2023-04-17T08:48:46.392Z,99.99
2023-04-17T08:49:46.349Z,99.99
2023-04-17T08:50:46.312Z,99.99
2023-04-17T08:51:46.284Z,99.99
2023-04-17T08:52:47.007Z,99.99
2023-04-17T08:53:46.269Z,99.99
2023-04-17T08:54:47.465Z,99.99
2023-04-17T08:55:46.470Z,99.99
2023-04-17T08:56:46.200Z,99.99
2023-04-17T08:57:46.207Z,99.99
2023-04-17T08:58:46.210Z,99.99
2023-04-17T08:59:46.180Z,99.75
2023-04-17T09:00:46.166Z,99.95
2023-04-17T09:01:46.194Z,99.99
2023-04-17T09:02:46.192Z,99.99
2023-04-17T09:03:46.316Z,99.59
2023-04-17T09:04:46.181Z,98.16
2023-04-17T09:05:46.389Z,98.68
2023-04-17T09:06:46.062Z,99.29
2023-04-17T09:07:46.091Z,99.18
2023-04-17T09:08:46.279Z,98.47
2023-04-17T09:09:46.053Z,98.22
2023-04-17T09:10:46.774Z,97.71
2023-04-17T09:11:46.011Z,97.86
2023-04-17T09:12:46.009Z,99.04
2023-04-17T09:13:46.003Z,98.73
2023-04-17T09:14:45.884Z,99.44
2023-04-17T09:15:45.936Z,99.99
2023-04-17T09:16:45.939Z,98.38
2023-04-17T09:17:45.976Z,99.86
2023-04-17T09:18:45.932Z,99.99
2023-04-17T09:19:45.936Z,99.99
2023-04-17T09:20:46.617Z,99.99
2023-04-17T09:21:46.616Z,99.99
2023-04-17T09:22:46.614Z,99.99
2023-04-17T09:23:46.578Z,99.99
2023-04-17T09:24:46.565Z,99.99
2023-04-17T09:25:46.555Z,99.99
2023-04-17T09:26:46.572Z,99.99
2023-04-17T09:27:46.524Z,99.99
2023-04-17T09:28:46.504Z,99.99
2023-04-17T09:29:46.514Z,99.82
2023-04-17T09:30:45.769Z,99.99
2023-04-17T09:31:45.810Z,99.99
2023-04-17T09:32:46.551Z,99.47
2023-04-17T09:33:46.473Z,98.55
2023-04-17T09:34:46.476Z,99.99
2023-04-17T09:35:46.367Z,99.57
2023-04-17T09:36:46.422Z,96.62
2023-04-17T09:37:45.710Z,96.83
2023-04-17T09:38:45.661Z,97.39
2023-04-17T09:39:45.645Z,96.88
2023-04-17T09:40:45.861Z,96.78
2023-04-17T09:41:45.591Z,98.41
2023-04-17T09:42:45.610Z,96.47
2023-04-17T09:43:45.596Z,92.67
2023-04-17T09:44:45.575Z,95.31
2023-04-17T09:45:45.563Z,91.35
2023-04-17T09:46:46.309Z,93.99
2023-04-17T09:47:45.605Z,94.09
2023-04-17T09:48:45.764Z,90.80
2023-04-17T09:49:45.518Z,94.09
2023-04-17T09:50:45.723Z,91.05
2023-04-17T09:51:45.457Z,90.64
2023-04-17T09:52:45.493Z,92.91
2023-04-17T09:53:45.463Z,97.69
2023-04-17T09:54:45.444Z,98.20
2023-04-17T09:55:45.433Z,94.85
2023-04-17T09:56:46.074Z,97.53
2023-04-17T09:57:45.429Z,97.53
2023-04-17T09:58:45.394Z,99.26
2023-04-17T09:59:45.409Z,99.99
2023-04-17T10:00:45.457Z,99.99
2023-04-17T10:01:45.363Z,99.99
2023-04-17T10:02:45.412Z,99.99
2023-04-17T10:03:45.454Z,99.99
2023-04-17T10:04:45.559Z,99.99
2023-04-17T10:05:45.306Z,99.99
2023-04-17T10:06:45.247Z,99.99
2023-04-17T10:07:45.304Z,99.99
2023-04-17T10:08:45.270Z,99.99
2023-04-17T10:09:45.277Z,99.99
2023-04-17T10:10:45.227Z,99.99
2023-04-17T10:11:45.194Z,99.99
2023-04-17T10:12:45.461Z,99.99
2023-04-17T10:13:45.401Z,99.99
2023-04-17T10:14:45.160Z,99.99
2023-04-17T10:15:45.147Z,99.99
2023-04-17T10:16:45.338Z,99.99
2023-04-17T10:17:45.189Z,99.99
2023-04-17T10:18:44.771Z,99.99
2023-04-17T10:19:45.097Z,99.99
2023-04-17T10:20:45.134Z,99.99
2023-04-17T10:21:45.049Z,99.99
2023-04-17T10:22:45.063Z,99.99
2023-04-17T10:23:45.044Z,99.99
2023-04-17T10:24:44.780Z,99.99
2023-04-17T10:25:44.774Z,99.99
2023-04-17T10:26:44.785Z,99.99
2023-04-17T10:27:44.789Z,99.99
2023-04-17T10:28:44.973Z,99.99
2023-04-17T10:29:44.964Z,99.11
2023-04-17T10:30:44.953Z,98.03
2023-04-17T10:31:44.982Z,99.99
2023-04-17T10:32:44.962Z,99.56
2023-04-17T10:33:44.907Z,99.16
2023-04-17T10:34:44.898Z,99.05
2023-04-17T10:35:44.886Z,99.77
2023-04-17T10:36:45.094Z,98.95
2023-04-17T10:37:44.823Z,96.10
2023-04-17T10:38:45.067Z,95.79
2023-04-17T10:39:44.819Z,95.90
2023-04-17T10:40:45.031Z,98.24
2023-04-17T10:41:44.585Z,98.24
2023-04-17T10:42:44.768Z,98.75
2023-04-17T10:43:44.809Z,94.88
2023-04-17T10:44:44.769Z,97.12
2023-04-17T10:45:44.806Z,92.84
2023-04-17T10:46:44.721Z,97.32
2023-04-17T10:47:44.771Z,96.51
2023-04-17T10:48:45.371Z,96.51
2023-04-17T10:49:44.786Z,97.28
2023-04-17T10:50:44.681Z,96.20
2023-04-17T10:51:45.365Z,95.39
2023-04-17T10:52:45.030Z,97.32
2023-04-17T10:53:44.632Z,95.08
2023-04-17T10:54:44.830Z,96.30
2023-04-17T10:55:44.600Z,97.83
2023-04-17T10:56:43.953Z,94.78
2023-04-17T10:57:44.552Z,93.96
2023-04-17T10:58:44.565Z,95.69
2023-04-17T10:59:44.544Z,94.63
2023-04-17T11:00:44.530Z,90.66
2023-04-17T11:01:44.588Z,92.40
2023-04-17T11:02:45.328Z,89.34
2023-04-17T11:03:44.571Z,89.61
2023-04-17T11:04:44.546Z,88.79
2023-04-17T11:05:44.476Z,88.79
2023-04-17T11:06:44.456Z,86.41
2023-04-17T11:07:43.988Z,85.19
2023-04-17T11:08:44.423Z,85.70
2023-04-17T11:09:44.433Z,84.58
2023-04-17T11:10:44.433Z,80.78
2023-04-17T11:11:45.210Z,81.29
2023-04-17T11:12:44.362Z,79.05
2023-04-17T11:13:44.350Z,80.17
2023-04-17T11:14:44.344Z,79.93
2023-04-17T11:15:44.339Z,79.72
2023-04-17T11:16:44.566Z,77.63
2023-04-17T11:17:44.326Z,79.36
2023-04-17T11:18:44.287Z,78.04
2023-04-17T11:19:46.391Z,80.21
2023-04-17T11:20:44.299Z,81.09
2023-04-17T11:21:43.929Z,80.80
2023-04-17T11:22:44.279Z,80.10
2023-04-17T11:23:44.628Z,77.52
2023-04-17T11:24:44.268Z,75.79
2023-04-17T11:25:44.382Z,73.63
2023-04-17T11:26:44.179Z,72.61
2023-04-17T11:27:44.837Z,72.01
2023-04-17T11:28:43.934Z,70.56
2023-04-17T11:29:44.137Z,71.47
2023-04-17T11:30:44.417Z,71.97
2023-04-17T11:31:44.107Z,67.68
2023-04-17T11:32:44.167Z,66.67
2023-04-17T11:33:44.050Z,66.47
2023-04-17T11:34:44.082Z,67.18
2023-04-17T11:35:44.752Z,65.66
2023-04-17T11:36:44.056Z,66.57
2023-04-17T11:37:44.029Z,67.99
2023-04-17T11:38:44.733Z,68.70
2023-04-17T11:39:44.034Z,67.58
2023-04-17T11:40:44.741Z,68.49
2023-04-17T11:41:44.689Z,66.97
2023-04-17T11:42:44.692Z,69.10
2023-04-17T11:43:44.701Z,68.83
2023-04-17T11:44:44.648Z,68.76
2023-04-17T11:45:44.667Z,69.30
2023-04-17T11:46:44.656Z,69.00
2023-04-17T11:47:43.978Z,70.92
2023-04-17T11:48:44.605Z,71.84
2023-04-17T11:49:44.592Z,72.25
2023-04-17T11:50:44.574Z,69.51
2023-04-17T11:51:44.571Z,70.11
2023-04-17T11:52:45.608Z,69.34
2023-04-17T11:53:44.524Z,70.55
2023-04-17T11:54:43.896Z,72.41
2023-04-17T11:55:43.080Z,72.48
2023-04-17T11:56:43.759Z,72.28
2023-04-17T11:57:44.429Z,71.26
2023-04-17T11:58:44.450Z,71.50
2023-04-17T11:59:43.724Z,72.92
2023-04-17T12:00:44.388Z,71.40
2023-04-17T12:01:43.702Z,71.30
2023-04-17T12:02:43.762Z,72.31
2023-04-17T12:03:45.452Z,72.96
2023-04-17T12:04:43.881Z,73.36
2023-04-17T12:05:43.714Z,76.82
2023-04-17T12:06:43.626Z,76.10
2023-04-17T12:07:43.626Z,76.41
2023-04-17T12:08:43.577Z,76.41
2023-04-17T12:09:44.302Z,75.49
2023-04-17T12:10:43.621Z,77.12
2023-04-17T12:11:43.560Z,80.47
2023-04-17T12:12:43.542Z,76.51
2023-04-17T12:13:43.517Z,76.25
2023-04-17T12:14:43.522Z,81.33
2023-04-17T12:15:43.544Z,82.65
2023-04-17T12:16:43.621Z,81.63
2023-04-17T12:17:43.518Z,86.61
2023-04-17T12:18:43.450Z,82.95
2023-04-17T12:19:43.456Z,85.19
2023-04-17T12:20:43.441Z,83.36
2023-04-17T12:21:44.095Z,83.87
2023-04-17T12:22:43.637Z,84.72
2023-04-17T12:23:43.394Z,86.86
2023-04-17T12:24:43.389Z,88.59
2023-04-17T12:25:43.361Z,88.79
2023-04-17T12:26:43.366Z,90.25
2023-04-17T12:27:42.889Z,92.29
2023-04-17T12:28:44.010Z,91.07
2023-04-17T12:29:44.816Z,90.16
2023-04-17T12:30:43.372Z,90.77
2023-04-17T12:31:43.968Z,91.78
2023-04-17T12:32:43.330Z,92.40
2023-04-17T12:33:43.241Z,93.62
2023-04-17T12:34:43.250Z,93.92
2023-04-17T12:35:42.907Z,94.17
2023-04-17T12:36:43.444Z,94.17
2023-04-17T12:37:43.209Z,95.39
2023-04-17T12:38:43.200Z,93.55
2023-04-17T12:39:43.160Z,94.52
2023-04-17T12:40:43.179Z,94.98
2023-04-17T12:41:42.900Z,95.39
2023-04-17T12:42:49.084Z,95.90
2023-04-17T12:43:44.062Z,96.71
2023-04-17T12:44:42.904Z,97.83
2023-04-17T12:45:43.161Z,94.78
2023-04-17T12:46:43.092Z,95.24
2023-04-17T12:47:43.378Z,94.23
2023-04-17T12:48:43.074Z,93.51
2023-04-17T12:49:43.022Z,95.14
2023-04-17T12:50:43.028Z,94.43
2023-04-17T12:51:43.046Z,95.04
2023-04-17T12:52:42.994Z,96.15